sensor_id;sensor_type;location;lat;lon;timestamp;P1;durP1;ratioP1;P2;durP2;ratioP2
17564;SDS011;62994;52.126;5.596;2023-02-15T00:02:00;30.33;;;17.83;;
17564;SDS011;62994;52.126;5.596;2023-02-15T00:04:35;29.73;;;18.27;;
17564;SDS011;62994;52.126;5.596;2023-02-15T00:07:16;28.60;;;18.07;;
17564;SDS011;62994;52.126;5.596;2023-02-15T00:09:44;29.02;;;18.42;;
17564;SDS011;62994;52.126;5.596;2023-02-15T00:12:16;26.77;;;18.55;;
17564;SDS011;62994;52.126;5.596;2023-02-15T00:14:43;24.77;;;17.20;;
17564;SDS011;62994;52.126;5.596;2023-02-15T00:17:10;29.83;;;18.63;;
17564;SDS011;62994;52.126;5.596;2023-02-15T00:19:38;27.37;;;17.17;;
17564;SDS011;62994;52.126;5.596;2023-02-15T00:22:06;26.20;;;16.83;;
17564;SDS011;62994;52.126;5.596;2023-02-15T00:24:37;36.83;;;18.13;;
17564;SDS011;62994;52.126;5.596;2023-02-15T00:27:04;27.90;;;17.07;;
17564;SDS011;62994;52.126;5.596;2023-02-15T00:29:31;26.10;;;17.07;;
17564;SDS011;62994;52.126;5.596;2023-02-15T00:32:02;24.83;;;15.97;;
17564;SDS011;62994;52.126;5.596;2023-02-15T00:34:32;28.03;;;17.90;;
17564;SDS011;62994;52.126;5.596;2023-02-15T00:37:01;32.47;;;19.27;;
17564;SDS011;62994;52.126;5.596;2023-02-15T00:39:28;28.40;;;18.10;;
17564;SDS011;62994;52.126;5.596;2023-02-15T00:42:02;27.97;;;18.13;;
17564;SDS011;62994;52.126;5.596;2023-02-15T00:44:29;33.23;;;18.43;;
17564;SDS011;62994;52.126;5.596;2023-02-15T00:46:56;29.50;;;16.67;;
17564;SDS011;62994;52.126;5.596;2023-02-15T00:49:23;28.07;;;17.10;;
17564;SDS011;62994;52.126;5.596;2023-02-15T00:52:05;23.77;;;16.67;;
17564;SDS011;62994;52.126;5.596;2023-02-15T00:54:33;30.13;;;17.50;;
17564;SDS011;62994;52.126;5.596;2023-02-15T00:57:00;27.93;;;16.73;;
17564;SDS011;62994;52.126;5.596;2023-02-15T00:59:27;24.07;;;17.13;;
17564;SDS011;62994;52.126;5.596;2023-02-15T01:01:55;32.37;;;18.23;;
17564;SDS011;62994;52.126;5.596;2023-02-15T01:04:31;26.17;;;17.83;;
17564;SDS011;62994;52.126;5.596;2023-02-15T01:07:07;24.13;;;16.43;;
17564;SDS011;62994;52.126;5.596;2023-02-15T01:09:36;27.47;;;16.43;;
17564;SDS011;62994;52.126;5.596;2023-02-15T01:12:03;25.47;;;17.13;;
17564;SDS011;62994;52.126;5.596;2023-02-15T01:14:36;23.87;;;16.50;;
17564;SDS011;62994;52.126;5.596;2023-02-15T01:17:05;28.50;;;17.23;;
17564;SDS011;62994;52.126;5.596;2023-02-15T01:19:32;24.47;;;16.30;;
17564;SDS011;62994;52.126;5.596;2023-02-15T01:21:59;26.50;;;15.67;;
17564;SDS011;62994;52.126;5.596;2023-02-15T01:24:28;28.03;;;16.47;;
17564;SDS011;62994;52.126;5.596;2023-02-15T01:27:00;22.47;;;15.70;;
17564;SDS011;62994;52.126;5.596;2023-02-15T01:29:28;26.30;;;15.37;;
17564;SDS011;62994;52.126;5.596;2023-02-15T01:31:57;24.07;;;15.33;;
17564;SDS011;62994;52.126;5.596;2023-02-15T01:34:24;26.73;;;15.70;;
17564;SDS011;62994;52.126;5.596;2023-02-15T01:36:58;22.80;;;15.93;;
17564;SDS011;62994;52.126;5.596;2023-02-15T01:39:25;27.60;;;16.30;;
17564;SDS011;62994;52.126;5.596;2023-02-15T01:41:57;24.13;;;15.87;;
17564;SDS011;62994;52.126;5.596;2023-02-15T01:47:21;24.97;;;15.70;;
17564;SDS011;62994;52.126;5.596;2023-02-15T01:49:54;24.63;;;14.95;;
17564;SDS011;62994;52.126;5.596;2023-02-15T01:52:26;26.85;;;18.55;;
17564;SDS011;62994;52.126;5.596;2023-02-15T01:54:55;29.83;;;16.93;;
17564;SDS011;62994;52.126;5.596;2023-02-15T01:57:30;26.63;;;16.70;;
17564;SDS011;62994;52.126;5.596;2023-02-15T02:00:04;26.52;;;16.25;;
17564;SDS011;62994;52.126;5.596;2023-02-15T02:02:34;28.57;;;15.23;;
17564;SDS011;62994;52.126;5.596;2023-02-15T02:05:06;23.13;;;15.33;;
17564;SDS011;62994;52.126;5.596;2023-02-15T02:07:36;27.17;;;14.50;;
17564;SDS011;62994;52.126;5.596;2023-02-15T02:10:08;22.50;;;14.73;;
17564;SDS011;62994;52.126;5.596;2023-02-15T02:12:39;22.27;;;13.87;;
17564;SDS011;62994;52.126;5.596;2023-02-15T02:15:09;25.77;;;15.10;;
17564;SDS011;62994;52.126;5.596;2023-02-15T02:17:40;22.43;;;13.73;;
17564;SDS011;62994;52.126;5.596;2023-02-15T02:20:17;23.43;;;14.43;;
17564;SDS011;62994;52.126;5.596;2023-02-15T02:32:56;32.13;;;14.10;;
17564;SDS011;62994;52.126;5.596;2023-02-15T02:36:00;22.90;;;13.20;;
17564;SDS011;62994;52.126;5.596;2023-02-15T02:38:37;22.67;;;13.00;;
17564;SDS011;62994;52.126;5.596;2023-02-15T02:41:20;24.03;;;13.43;;
17564;SDS011;62994;52.126;5.596;2023-02-15T02:44:05;20.43;;;13.03;;
17564;SDS011;62994;52.126;5.596;2023-02-15T02:46:42;23.83;;;14.27;;
17564;SDS011;62994;52.126;5.596;2023-02-15T02:49:17;28.63;;;15.43;;
17564;SDS011;62994;52.126;5.596;2023-02-15T02:51:58;21.73;;;13.23;;
17564;SDS011;62994;52.126;5.596;2023-02-15T02:54:26;25.87;;;13.37;;
17564;SDS011;62994;52.126;5.596;2023-02-15T02:56:58;25.33;;;13.43;;
17564;SDS011;62994;52.126;5.596;2023-02-15T02:59:29;26.57;;;13.70;;
17564;SDS011;62994;52.126;5.596;2023-02-15T03:02:00;21.33;;;11.93;;
17564;SDS011;62994;52.126;5.596;2023-02-15T03:04:35;23.50;;;13.57;;
17564;SDS011;62994;52.126;5.596;2023-02-15T03:07:04;22.77;;;12.83;;
17564;SDS011;62994;52.126;5.596;2023-02-15T03:09:36;24.30;;;13.73;;
17564;SDS011;62994;52.126;5.596;2023-02-15T03:12:07;23.87;;;13.27;;
17564;SDS011;62994;52.126;5.596;2023-02-15T03:14:52;23.33;;;13.93;;
17564;SDS011;62994;52.126;5.596;2023-02-15T03:17:23;23.30;;;13.50;;
17564;SDS011;62994;52.126;5.596;2023-02-15T03:20:00;22.17;;;12.80;;
17564;SDS011;62994;52.126;5.596;2023-02-15T03:22:30;23.30;;;13.37;;
17564;SDS011;62994;52.126;5.596;2023-02-15T03:25:02;21.87;;;13.10;;
17564;SDS011;62994;52.126;5.596;2023-02-15T03:27:35;22.03;;;12.80;;
17564;SDS011;62994;52.126;5.596;2023-02-15T03:30:11;22.23;;;13.13;;
17564;SDS011;62994;52.126;5.596;2023-02-15T03:32:41;19.40;;;12.43;;
17564;SDS011;62994;52.126;5.596;2023-02-15T03:35:12;22.33;;;13.17;;
17564;SDS011;62994;52.126;5.596;2023-02-15T03:37:40;22.03;;;12.70;;
17564;SDS011;62994;52.126;5.596;2023-02-15T03:40:12;25.20;;;13.80;;
17564;SDS011;62994;52.126;5.596;2023-02-15T03:43:12;24.17;;;13.50;;
17564;SDS011;62994;52.126;5.596;2023-02-15T03:45:43;25.80;;;13.57;;
17564;SDS011;62994;52.126;5.596;2023-02-15T03:48:21;23.87;;;12.80;;
17564;SDS011;62994;52.126;5.596;2023-02-15T03:51:07;19.43;;;12.77;;
17564;SDS011;62994;52.126;5.596;2023-02-15T03:53:56;19.93;;;12.53;;
17564;SDS011;62994;52.126;5.596;2023-02-15T03:56:34;22.70;;;13.27;;
17564;SDS011;62994;52.126;5.596;2023-02-15T03:59:04;27.07;;;13.53;;
17564;SDS011;62994;52.126;5.596;2023-02-15T04:01:51;25.27;;;13.67;;
17564;SDS011;62994;52.126;5.596;2023-02-15T04:04:31;20.40;;;12.70;;
17564;SDS011;62994;52.126;5.596;2023-02-15T04:07:02;23.70;;;14.03;;
17564;SDS011;62994;52.126;5.596;2023-02-15T04:09:30;22.33;;;13.43;;
17564;SDS011;62994;52.126;5.596;2023-02-15T04:12:15;24.20;;;13.67;;
17564;SDS011;62994;52.126;5.596;2023-02-15T04:14:46;27.70;;;13.60;;
17564;SDS011;62994;52.126;5.596;2023-02-15T04:17:35;26.37;;;13.30;;
17564;SDS011;62994;52.126;5.596;2023-02-15T04:20:02;21.70;;;12.47;;
17564;SDS011;62994;52.126;5.596;2023-02-15T04:22:49;21.53;;;12.40;;
17564;SDS011;62994;52.126;5.596;2023-02-15T04:25:38;21.47;;;12.07;;
17564;SDS011;62994;52.126;5.596;2023-02-15T04:28:07;21.47;;;13.00;;
17564;SDS011;62994;52.126;5.596;2023-02-15T04:30:34;22.33;;;12.70;;
17564;SDS011;62994;52.126;5.596;2023-02-15T04:33:03;24.90;;;12.70;;
17564;SDS011;62994;52.126;5.596;2023-02-15T04:35:32;20.23;;;12.60;;
17564;SDS011;62994;52.126;5.596;2023-02-15T04:38:01;18.33;;;11.77;;
17564;SDS011;62994;52.126;5.596;2023-02-15T04:40:33;21.70;;;12.73;;
17564;SDS011;62994;52.126;5.596;2023-02-15T04:43:06;24.23;;;12.90;;
17564;SDS011;62994;52.126;5.596;2023-02-15T04:45:33;26.50;;;13.27;;
17564;SDS011;62994;52.126;5.596;2023-02-15T04:48:00;22.43;;;12.17;;
17564;SDS011;62994;52.126;5.596;2023-02-15T04:50:27;21.47;;;12.83;;
17564;SDS011;62994;52.126;5.596;2023-02-15T04:52:54;19.60;;;10.43;;
17564;SDS011;62994;52.126;5.596;2023-02-15T04:55:22;23.00;;;13.40;;
17564;SDS011;62994;52.126;5.596;2023-02-15T04:57:49;24.73;;;12.87;;
17564;SDS011;62994;52.126;5.596;2023-02-15T05:00:22;22.63;;;12.73;;
17564;SDS011;62994;52.126;5.596;2023-02-15T05:02:49;20.10;;;13.10;;
17564;SDS011;62994;52.126;5.596;2023-02-15T05:05:22;21.53;;;12.93;;
17564;SDS011;62994;52.126;5.596;2023-02-15T05:07:49;24.77;;;13.33;;
17564;SDS011;62994;52.126;5.596;2023-02-15T05:10:27;23.83;;;12.87;;
17564;SDS011;62994;52.126;5.596;2023-02-15T05:12:59;25.40;;;13.87;;
17564;SDS011;62994;52.126;5.596;2023-02-15T05:15:26;24.03;;;13.20;;
17564;SDS011;62994;52.126;5.596;2023-02-15T05:17:58;27.07;;;13.53;;
17564;SDS011;62994;52.126;5.596;2023-02-15T05:20:36;25.03;;;13.57;;
17564;SDS011;62994;52.126;5.596;2023-02-15T05:23:03;26.37;;;12.93;;
17564;SDS011;62994;52.126;5.596;2023-02-15T05:25:38;28.53;;;13.03;;
17564;SDS011;62994;52.126;5.596;2023-02-15T05:28:28;29.07;;;13.30;;
17564;SDS011;62994;52.126;5.596;2023-02-15T05:30:59;26.60;;;14.10;;
17564;SDS011;62994;52.126;5.596;2023-02-15T05:33:30;21.40;;;13.40;;
17564;SDS011;62994;52.126;5.596;2023-02-15T05:36:06;26.80;;;14.10;;
17564;SDS011;62994;52.126;5.596;2023-02-15T05:38:36;26.17;;;13.83;;
17564;SDS011;62994;52.126;5.596;2023-02-15T05:41:05;26.90;;;13.47;;
17564;SDS011;62994;52.126;5.596;2023-02-15T05:43:33;24.90;;;13.00;;
17564;SDS011;62994;52.126;5.596;2023-02-15T05:46:00;24.33;;;13.97;;
17564;SDS011;62994;52.126;5.596;2023-02-15T05:48:28;29.03;;;12.70;;
17564;SDS011;62994;52.126;5.596;2023-02-15T05:51:01;21.80;;;11.83;;
17564;SDS011;62994;52.126;5.596;2023-02-15T05:53:30;25.83;;;12.97;;
17564;SDS011;62994;52.126;5.596;2023-02-15T05:56:02;20.47;;;11.67;;
17564;SDS011;62994;52.126;5.596;2023-02-15T05:58:35;24.10;;;13.80;;
17564;SDS011;62994;52.126;5.596;2023-02-15T06:01:07;21.57;;;12.83;;
17564;SDS011;62994;52.126;5.596;2023-02-15T06:03:42;21.47;;;12.00;;
17564;SDS011;62994;52.126;5.596;2023-02-15T06:06:10;24.40;;;13.33;;
17564;SDS011;62994;52.126;5.596;2023-02-15T06:08:41;24.87;;;14.17;;
17564;SDS011;62994;52.126;5.596;2023-02-15T06:11:10;27.33;;;13.23;;
17564;SDS011;62994;52.126;5.596;2023-02-15T06:13:43;24.30;;;13.80;;
17564;SDS011;62994;52.126;5.596;2023-02-15T06:16:10;24.87;;;13.50;;
17564;SDS011;62994;52.126;5.596;2023-02-15T06:18:40;18.97;;;12.67;;
17564;SDS011;62994;52.126;5.596;2023-02-15T06:21:19;25.83;;;13.33;;
17564;SDS011;62994;52.126;5.596;2023-02-15T06:24:01;30.17;;;13.00;;
17564;SDS011;62994;52.126;5.596;2023-02-15T06:26:30;25.03;;;12.93;;
17564;SDS011;62994;52.126;5.596;2023-02-15T06:29:02;23.00;;;12.60;;
17564;SDS011;62994;52.126;5.596;2023-02-15T06:31:38;27.17;;;13.93;;
17564;SDS011;62994;52.126;5.596;2023-02-15T06:34:05;26.27;;;13.40;;
17564;SDS011;62994;52.126;5.596;2023-02-15T06:36:35;28.43;;;14.50;;
17564;SDS011;62994;52.126;5.596;2023-02-15T06:39:02;27.77;;;14.43;;
17564;SDS011;62994;52.126;5.596;2023-02-15T06:41:30;26.93;;;14.43;;
17564;SDS011;62994;52.126;5.596;2023-02-15T06:43:59;27.67;;;13.80;;
17564;SDS011;62994;52.126;5.596;2023-02-15T06:46:32;25.90;;;14.13;;
17564;SDS011;62994;52.126;5.596;2023-02-15T06:48:59;27.90;;;14.20;;
17564;SDS011;62994;52.126;5.596;2023-02-15T06:51:31;25.90;;;13.63;;
17564;SDS011;62994;52.126;5.596;2023-02-15T06:54:04;23.17;;;13.20;;
17564;SDS011;62994;52.126;5.596;2023-02-15T06:56:32;25.33;;;14.37;;
17564;SDS011;62994;52.126;5.596;2023-02-15T06:59:03;40.70;;;15.77;;
17564;SDS011;62994;52.126;5.596;2023-02-15T07:01:30;37.73;;;18.47;;
17564;SDS011;62994;52.126;5.596;2023-02-15T07:04:01;30.90;;;17.33;;
17564;SDS011;62994;52.126;5.596;2023-02-15T07:06:30;36.00;;;17.33;;
17564;SDS011;62994;52.126;5.596;2023-02-15T07:08:57;32.40;;;16.27;;
17564;SDS011;62994;52.126;5.596;2023-02-15T07:11:30;31.00;;;15.67;;
17564;SDS011;62994;52.126;5.596;2023-02-15T07:14:17;34.17;;;15.73;;
17564;SDS011;62994;52.126;5.596;2023-02-15T07:16:44;33.03;;;16.27;;
17564;SDS011;62994;52.126;5.596;2023-02-15T07:19:11;29.97;;;16.90;;
17564;SDS011;62994;52.126;5.596;2023-02-15T07:21:38;31.07;;;15.43;;
17564;SDS011;62994;52.126;5.596;2023-02-15T07:24:11;35.60;;;16.27;;
17564;SDS011;62994;52.126;5.596;2023-02-15T07:26:39;32.47;;;15.83;;
17564;SDS011;62994;52.126;5.596;2023-02-15T07:29:11;31.77;;;16.83;;
17564;SDS011;62994;52.126;5.596;2023-02-15T07:31:44;32.77;;;15.23;;
17564;SDS011;62994;52.126;5.596;2023-02-15T07:34:11;31.67;;;16.27;;
17564;SDS011;62994;52.126;5.596;2023-02-15T07:36:43;38.77;;;18.30;;
17564;SDS011;62994;52.126;5.596;2023-02-15T07:39:10;36.43;;;17.70;;
17564;SDS011;62994;52.126;5.596;2023-02-15T07:41:43;36.97;;;17.70;;
17564;SDS011;62994;52.126;5.596;2023-02-15T07:44:11;30.20;;;16.53;;
17564;SDS011;62994;52.126;5.596;2023-02-15T07:46:38;34.57;;;17.03;;
17564;SDS011;62994;52.126;5.596;2023-02-15T07:49:07;41.13;;;18.77;;
17564;SDS011;62994;52.126;5.596;2023-02-15T07:51:34;36.60;;;17.27;;
17564;SDS011;62994;52.126;5.596;2023-02-15T07:54:02;39.27;;;19.27;;
17564;SDS011;62994;52.126;5.596;2023-02-15T07:56:29;35.40;;;18.90;;
17564;SDS011;62994;52.126;5.596;2023-02-15T07:58:59;37.77;;;18.60;;
17564;SDS011;62994;52.126;5.596;2023-02-15T08:01:29;40.27;;;18.43;;
17564;SDS011;62994;52.126;5.596;2023-02-15T08:04:04;43.77;;;20.73;;
17564;SDS011;62994;52.126;5.596;2023-02-15T08:06:34;40.13;;;19.20;;
17564;SDS011;62994;52.126;5.596;2023-02-15T08:09:03;38.13;;;18.53;;
17564;SDS011;62994;52.126;5.596;2023-02-15T08:11:31;41.70;;;19.27;;
17564;SDS011;62994;52.126;5.596;2023-02-15T08:14:09;38.83;;;18.57;;
17564;SDS011;62994;52.126;5.596;2023-02-15T08:16:41;42.43;;;20.93;;
17564;SDS011;62994;52.126;5.596;2023-02-15T08:19:11;46.43;;;20.47;;
17564;SDS011;62994;52.126;5.596;2023-02-15T08:21:39;44.57;;;22.00;;
17564;SDS011;62994;52.126;5.596;2023-02-15T08:24:08;54.13;;;23.10;;
17564;SDS011;62994;52.126;5.596;2023-02-15T08:26:41;45.50;;;20.63;;
17564;SDS011;62994;52.126;5.596;2023-02-15T08:29:12;42.17;;;21.47;;
17564;SDS011;62994;52.126;5.596;2023-02-15T08:31:41;50.47;;;21.67;;
17564;SDS011;62994;52.126;5.596;2023-02-15T08:34:08;45.00;;;22.27;;
17564;SDS011;62994;52.126;5.596;2023-02-15T08:36:38;48.50;;;21.30;;
17564;SDS011;62994;52.126;5.596;2023-02-15T08:39:11;48.20;;;22.73;;
17564;SDS011;62994;52.126;5.596;2023-02-15T08:41:41;52.10;;;25.37;;
17564;SDS011;62994;52.126;5.596;2023-02-15T08:44:14;49.10;;;24.70;;
17564;SDS011;62994;52.126;5.596;2023-02-15T08:46:44;48.97;;;22.87;;
17564;SDS011;62994;52.126;5.596;2023-02-15T08:49:13;49.43;;;24.00;;
17564;SDS011;62994;52.126;5.596;2023-02-15T08:51:42;52.97;;;24.20;;
17564;SDS011;62994;52.126;5.596;2023-02-15T08:54:09;49.65;;;24.60;;
17564;SDS011;62994;52.126;5.596;2023-02-15T08:56:41;53.13;;;25.03;;
17564;SDS011;62994;52.126;5.596;2023-02-15T08:59:13;52.03;;;26.33;;
17564;SDS011;62994;52.126;5.596;2023-02-15T09:01:42;53.73;;;26.93;;
17564;SDS011;62994;52.126;5.596;2023-02-15T09:04:10;52.23;;;26.50;;
17564;SDS011;62994;52.126;5.596;2023-02-15T09:06:45;53.33;;;26.20;;
17564;SDS011;62994;52.126;5.596;2023-02-15T09:09:13;54.40;;;26.43;;
17564;SDS011;62994;52.126;5.596;2023-02-15T09:11:42;42.67;;;24.77;;
17564;SDS011;62994;52.126;5.596;2023-02-15T09:14:11;52.67;;;26.50;;
17564;SDS011;62994;52.126;5.596;2023-02-15T09:16:40;49.40;;;25.87;;
17564;SDS011;62994;52.126;5.596;2023-02-15T09:19:09;50.20;;;26.17;;
17564;SDS011;62994;52.126;5.596;2023-02-15T09:21:37;56.33;;;26.33;;
17564;SDS011;62994;52.126;5.596;2023-02-15T09:24:05;46.47;;;25.00;;
17564;SDS011;62994;52.126;5.596;2023-02-15T09:26:34;44.25;;;25.27;;
17564;SDS011;62994;52.126;5.596;2023-02-15T09:29:05;43.47;;;25.77;;
17564;SDS011;62994;52.126;5.596;2023-02-15T09:31:39;45.95;;;24.17;;
17564;SDS011;62994;52.126;5.596;2023-02-15T09:34:14;43.90;;;24.52;;
17564;SDS011;62994;52.126;5.596;2023-02-15T09:36:42;47.55;;;25.58;;
17564;SDS011;62994;52.126;5.596;2023-02-15T09:39:15;44.95;;;24.52;;
17564;SDS011;62994;52.126;5.596;2023-02-15T09:41:50;39.85;;;23.13;;
17564;SDS011;62994;52.126;5.596;2023-02-15T09:44:47;40.22;;;23.58;;
17564;SDS011;62994;52.126;5.596;2023-02-15T09:50:39;40.60;;;23.63;;
17564;SDS011;62994;52.126;5.596;2023-02-15T09:53:22;45.55;;;24.42;;
17564;SDS011;62994;52.126;5.596;2023-02-15T09:56:17;37.95;;;23.95;;
17564;SDS011;62994;52.126;5.596;2023-02-15T09:58:52;37.88;;;23.50;;
17564;SDS011;62994;52.126;5.596;2023-02-15T10:01:28;36.85;;;21.63;;
17564;SDS011;62994;52.126;5.596;2023-02-15T10:04:10;38.80;;;22.35;;
17564;SDS011;62994;52.126;5.596;2023-02-15T10:06:47;42.17;;;23.75;;
17564;SDS011;62994;52.126;5.596;2023-02-15T10:09:32;36.00;;;22.48;;
17564;SDS011;62994;52.126;5.596;2023-02-15T10:12:20;41.08;;;23.50;;
17564;SDS011;62994;52.126;5.596;2023-02-15T10:15:04;39.22;;;23.38;;
17564;SDS011;62994;52.126;5.596;2023-02-15T10:17:49;36.20;;;22.50;;
17564;SDS011;62994;52.126;5.596;2023-02-15T10:20:33;39.38;;;22.98;;
17564;SDS011;62994;52.126;5.596;2023-02-15T10:23:17;38.58;;;21.58;;
17564;SDS011;62994;52.126;5.596;2023-02-15T10:25:57;35.83;;;21.73;;
17564;SDS011;62994;52.126;5.596;2023-02-15T10:28:41;40.83;;;22.95;;
17564;SDS011;62994;52.126;5.596;2023-02-15T10:31:14;40.88;;;22.95;;
17564;SDS011;62994;52.126;5.596;2023-02-15T10:33:51;37.78;;;23.13;;
17564;SDS011;62994;52.126;5.596;2023-02-15T10:36:44;39.83;;;24.02;;
17564;SDS011;62994;52.126;5.596;2023-02-15T10:39:29;42.03;;;23.13;;
17564;SDS011;62994;52.126;5.596;2023-02-15T10:42:05;37.63;;;23.30;;
17564;SDS011;62994;52.126;5.596;2023-02-15T10:44:45;34.40;;;21.27;;
17564;SDS011;62994;52.126;5.596;2023-02-15T10:47:31;35.65;;;21.15;;
17564;SDS011;62994;52.126;5.596;2023-02-15T10:50:13;41.22;;;22.88;;
17564;SDS011;62994;52.126;5.596;2023-02-15T10:52:57;37.17;;;21.52;;
17564;SDS011;62994;52.126;5.596;2023-02-15T10:55:42;37.60;;;22.02;;
17564;SDS011;62994;52.126;5.596;2023-02-15T10:58:20;33.55;;;22.00;;
17564;SDS011;62994;52.126;5.596;2023-02-15T11:01:00;35.03;;;22.10;;
17564;SDS011;62994;52.126;5.596;2023-02-15T11:03:39;37.63;;;23.40;;
17564;SDS011;62994;52.126;5.596;2023-02-15T11:06:20;37.40;;;22.80;;
17564;SDS011;62994;52.126;5.596;2023-02-15T11:08:56;38.72;;;22.45;;
17564;SDS011;62994;52.126;5.596;2023-02-15T11:11:33;35.78;;;22.50;;
17564;SDS011;62994;52.126;5.596;2023-02-15T11:14:05;36.97;;;22.45;;
17564;SDS011;62994;52.126;5.596;2023-02-15T11:16:44;37.28;;;22.70;;
17564;SDS011;62994;52.126;5.596;2023-02-15T11:19:16;39.97;;;23.52;;
17564;SDS011;62994;52.126;5.596;2023-02-15T11:21:53;39.00;;;23.67;;
17564;SDS011;62994;52.126;5.596;2023-02-15T11:24:32;33.67;;;21.42;;
17564;SDS011;62994;52.126;5.596;2023-02-15T11:27:04;34.80;;;21.63;;
17564;SDS011;62994;52.126;5.596;2023-02-15T11:29:45;39.33;;;23.45;;
17564;SDS011;62994;52.126;5.596;2023-02-15T11:32:20;33.40;;;21.75;;
17564;SDS011;62994;52.126;5.596;2023-02-15T11:34:50;45.90;;;23.58;;
17564;SDS011;62994;52.126;5.596;2023-02-15T11:37:24;36.05;;;22.48;;
17564;SDS011;62994;52.126;5.596;2023-02-15T11:40:26;38.05;;;22.27;;
17564;SDS011;62994;52.126;5.596;2023-02-15T11:43:05;35.78;;;22.45;;
17564;SDS011;62994;52.126;5.596;2023-02-15T11:45:37;37.92;;;22.88;;
17564;SDS011;62994;52.126;5.596;2023-02-15T11:48:08;29.92;;;21.48;;
17564;SDS011;62994;52.126;5.596;2023-02-15T11:50:37;36.65;;;23.13;;
17564;SDS011;62994;52.126;5.596;2023-02-15T11:53:09;35.90;;;22.38;;
17564;SDS011;62994;52.126;5.596;2023-02-15T11:55:41;35.80;;;23.75;;
17564;SDS011;62994;52.126;5.596;2023-02-15T11:58:21;39.28;;;23.35;;
17564;SDS011;62994;52.126;5.596;2023-02-15T12:01:00;36.58;;;24.23;;
17564;SDS011;62994;52.126;5.596;2023-02-15T12:03:39;36.83;;;24.17;;
17564;SDS011;62994;52.126;5.596;2023-02-15T12:06:20;41.47;;;24.25;;
17564;SDS011;62994;52.126;5.596;2023-02-15T12:08:52;39.28;;;23.42;;
17564;SDS011;62994;52.126;5.596;2023-02-15T12:11:31;37.20;;;22.88;;
17564;SDS011;62994;52.126;5.596;2023-02-15T12:14:02;33.47;;;23.50;;
17564;SDS011;62994;52.126;5.596;2023-02-15T12:16:32;36.08;;;22.88;;
17564;SDS011;62994;52.126;5.596;2023-02-15T12:19:09;41.15;;;23.58;;
17564;SDS011;62994;52.126;5.596;2023-02-15T12:21:46;34.35;;;23.05;;
17564;SDS011;62994;52.126;5.596;2023-02-15T12:24:18;33.67;;;22.65;;
17564;SDS011;62994;52.126;5.596;2023-02-15T12:27:01;33.90;;;23.00;;
17564;SDS011;62994;52.126;5.596;2023-02-15T12:29:34;36.63;;;21.83;;
17564;SDS011;62994;52.126;5.596;2023-02-15T12:32:09;36.65;;;22.83;;
17564;SDS011;62994;52.126;5.596;2023-02-15T12:34:43;37.40;;;22.92;;
17564;SDS011;62994;52.126;5.596;2023-02-15T12:37:15;33.60;;;22.85;;
17564;SDS011;62994;52.126;5.596;2023-02-15T12:39:52;39.25;;;22.92;;
17564;SDS011;62994;52.126;5.596;2023-02-15T12:42:22;33.65;;;21.55;;
17564;SDS011;62994;52.126;5.596;2023-02-15T12:44:58;36.25;;;22.20;;
17564;SDS011;62994;52.126;5.596;2023-02-15T12:47:26;34.17;;;22.85;;
17564;SDS011;62994;52.126;5.596;2023-02-15T12:50:08;37.53;;;21.95;;
17564;SDS011;62994;52.126;5.596;2023-02-15T12:52:42;36.72;;;22.08;;
17564;SDS011;62994;52.126;5.596;2023-02-15T12:55:11;35.83;;;22.73;;
17564;SDS011;62994;52.126;5.596;2023-02-15T12:57:48;38.20;;;23.70;;
17564;SDS011;62994;52.126;5.596;2023-02-15T13:00:26;33.00;;;21.83;;
17564;SDS011;62994;52.126;5.596;2023-02-15T13:02:57;38.92;;;23.85;;
17564;SDS011;62994;52.126;5.596;2023-02-15T13:05:31;35.75;;;22.90;;
17564;SDS011;62994;52.126;5.596;2023-02-15T13:08:08;32.47;;;22.15;;
17564;SDS011;62994;52.126;5.596;2023-02-15T13:10:39;35.10;;;22.75;;
17564;SDS011;62994;52.126;5.596;2023-02-15T13:13:16;36.70;;;23.67;;
17564;SDS011;62994;52.126;5.596;2023-02-15T13:15:48;35.95;;;23.23;;
17564;SDS011;62994;52.126;5.596;2023-02-15T13:18:18;32.03;;;22.83;;
17564;SDS011;62994;52.126;5.596;2023-02-15T13:21:00;33.45;;;22.17;;
17564;SDS011;62994;52.126;5.596;2023-02-15T13:23:32;37.20;;;22.35;;
17564;SDS011;62994;52.126;5.596;2023-02-15T13:26:08;36.63;;;22.67;;
17564;SDS011;62994;52.126;5.596;2023-02-15T13:28:47;33.58;;;21.40;;
17564;SDS011;62994;52.126;5.596;2023-02-15T13:31:17;34.88;;;22.45;;
17564;SDS011;62994;52.126;5.596;2023-02-15T13:33:46;30.80;;;21.88;;
17564;SDS011;62994;52.126;5.596;2023-02-15T13:36:19;33.35;;;22.17;;
17564;SDS011;62994;52.126;5.596;2023-02-15T13:39:06;43.28;;;24.73;;
17564;SDS011;62994;52.126;5.596;2023-02-15T13:41:46;36.17;;;21.65;;
17564;SDS011;62994;52.126;5.596;2023-02-15T13:44:23;34.83;;;23.08;;
17564;SDS011;62994;52.126;5.596;2023-02-15T13:47:15;33.60;;;22.95;;
17564;SDS011;62994;52.126;5.596;2023-02-15T13:49:52;34.00;;;23.83;;
17564;SDS011;62994;52.126;5.596;2023-02-15T13:52:30;43.25;;;24.77;;
17564;SDS011;62994;52.126;5.596;2023-02-15T13:55:23;34.10;;;22.63;;
17564;SDS011;62994;52.126;5.596;2023-02-15T13:58:01;34.60;;;22.40;;
17564;SDS011;62994;52.126;5.596;2023-02-15T14:00:56;40.72;;;23.73;;
17564;SDS011;62994;52.126;5.596;2023-02-15T14:03:40;36.30;;;22.90;;
17564;SDS011;62994;52.126;5.596;2023-02-15T14:06:32;36.78;;;22.95;;
17564;SDS011;62994;52.126;5.596;2023-02-15T14:09:19;43.28;;;24.48;;
17564;SDS011;62994;52.126;5.596;2023-02-15T14:12:06;35.45;;;23.15;;
17564;SDS011;62994;52.126;5.596;2023-02-15T14:15:05;37.20;;;24.02;;
17564;SDS011;62994;52.126;5.596;2023-02-15T14:17:43;34.40;;;23.17;;
17564;SDS011;62994;52.126;5.596;2023-02-15T14:20:24;35.38;;;24.15;;
17564;SDS011;62994;52.126;5.596;2023-02-15T14:23:00;33.83;;;23.60;;
17564;SDS011;62994;52.126;5.596;2023-02-15T14:25:37;41.27;;;26.23;;
17564;SDS011;62994;52.126;5.596;2023-02-15T14:28:09;34.67;;;23.85;;
17564;SDS011;62994;52.126;5.596;2023-02-15T14:30:41;39.28;;;23.48;;
17564;SDS011;62994;52.126;5.596;2023-02-15T14:33:19;44.20;;;25.42;;
17564;SDS011;62994;52.126;5.596;2023-02-15T14:36:03;35.45;;;23.48;;
17564;SDS011;62994;52.126;5.596;2023-02-15T14:38:38;37.17;;;24.05;;
17564;SDS011;62994;52.126;5.596;2023-02-15T14:41:19;45.65;;;24.85;;
17564;SDS011;62994;52.126;5.596;2023-02-15T14:44:01;39.92;;;24.45;;
17564;SDS011;62994;52.126;5.596;2023-02-15T14:46:45;37.35;;;23.73;;
17564;SDS011;62994;52.126;5.596;2023-02-15T14:49:19;41.03;;;23.55;;
17564;SDS011;62994;52.126;5.596;2023-02-15T14:51:59;35.45;;;23.08;;
17564;SDS011;62994;52.126;5.596;2023-02-15T14:57:30;31.65;;;23.08;;
17564;SDS011;62994;52.126;5.596;2023-02-15T14:59:59;35.15;;;23.38;;
17564;SDS011;62994;52.126;5.596;2023-02-15T15:02:47;39.08;;;21.83;;
17564;SDS011;62994;52.126;5.596;2023-02-15T15:05:21;39.50;;;23.98;;
17564;SDS011;62994;52.126;5.596;2023-02-15T15:07:52;34.10;;;23.70;;
17564;SDS011;62994;52.126;5.596;2023-02-15T15:16:24;34.70;;;23.58;;
17564;SDS011;62994;52.126;5.596;2023-02-15T15:19:04;41.15;;;25.17;;
17564;SDS011;62994;52.126;5.596;2023-02-15T15:21:53;41.22;;;24.63;;
17564;SDS011;62994;52.126;5.596;2023-02-15T15:40:04;38.03;;;24.08;;
17564;SDS011;62994;52.126;5.596;2023-02-15T15:46:15;36.65;;;24.15;;